sensor_id;sensor_type;location;lat;lon;timestamp;P1;durP1;ratioP1;P2;durP2;ratioP2
54263;SDS011;40178;53.042;6.406;2023-04-01T00:02:18;11.38;;;6.90;;
54263;SDS011;40178;53.042;6.406;2023-04-01T00:04:44;11.25;;;7.28;;
54263;SDS011;40178;53.042;6.406;2023-04-01T00:07:10;11.43;;;6.57;;
54263;SDS011;40178;53.042;6.406;2023-04-01T00:09:36;11.55;;;7.10;;
54263;SDS011;40178;53.042;6.406;2023-04-01T00:12:02;10.30;;;6.70;;
54263;SDS011;40178;53.042;6.406;2023-04-01T00:14:28;10.48;;;7.32;;
54263;SDS011;40178;53.042;6.406;2023-04-01T00:16:54;9.88;;;6.28;;
54263;SDS011;40178;53.042;6.406;2023-04-01T00:19:20;11.00;;;6.50;;
54263;SDS011;40178;53.042;6.406;2023-04-01T00:21:45;11.80;;;6.35;;
54263;SDS011;40178;53.042;6.406;2023-04-01T00:24:11;11.05;;;6.75;;
54263;SDS011;40178;53.042;6.406;2023-04-01T00:26:37;10.18;;;6.20;;
54263;SDS011;40178;53.042;6.406;2023-04-01T00:29:02;11.93;;;7.03;;
54263;SDS011;40178;53.042;6.406;2023-04-01T00:31:28;10.82;;;6.40;;
54263;SDS011;40178;53.042;6.406;2023-04-01T00:33:55;10.85;;;6.68;;
54263;SDS011;40178;53.042;6.406;2023-04-01T00:36:21;10.23;;;6.38;;
54263;SDS011;40178;53.042;6.406;2023-04-01T00:38:46;10.90;;;6.78;;
54263;SDS011;40178;53.042;6.406;2023-04-01T00:41:13;9.93;;;6.50;;
54263;SDS011;40178;53.042;6.406;2023-04-01T00:43:44;11.18;;;6.68;;
54263;SDS011;40178;53.042;6.406;2023-04-01T00:46:11;11.43;;;7.00;;
54263;SDS011;40178;53.042;6.406;2023-04-01T00:48:44;9.63;;;6.35;;
54263;SDS011;40178;53.042;6.406;2023-04-01T00:51:23;11.73;;;7.18;;
54263;SDS011;40178;53.042;6.406;2023-04-01T00:53:54;11.23;;;6.68;;
54263;SDS011;40178;53.042;6.406;2023-04-01T00:56:23;10.38;;;6.55;;
54263;SDS011;40178;53.042;6.406;2023-04-01T00:58:54;12.68;;;7.88;;
54263;SDS011;40178;53.042;6.406;2023-04-01T01:01:25;12.82;;;7.65;;
54263;SDS011;40178;53.042;6.406;2023-04-01T01:03:51;11.45;;;7.00;;
54263;SDS011;40178;53.042;6.406;2023-04-01T01:12:19;11.75;;;7.15;;
54263;SDS011;40178;53.042;6.406;2023-04-01T01:14:58;13.93;;;7.95;;
54263;SDS011;40178;53.042;6.406;2023-04-01T01:17:44;12.13;;;7.90;;
54263;SDS011;40178;53.042;6.406;2023-04-01T01:31:55;11.25;;;6.40;;
54263;SDS011;40178;53.042;6.406;2023-04-01T01:36:56;10.15;;;6.50;;
54263;SDS011;40178;53.042;6.406;2023-04-01T01:39:26;10.38;;;6.60;;
54263;SDS011;40178;53.042;6.406;2023-04-01T01:41:55;10.80;;;6.90;;
54263;SDS011;40178;53.042;6.406;2023-04-01T01:44:24;10.63;;;6.82;;
54263;SDS011;40178;53.042;6.406;2023-04-01T01:46:51;10.65;;;6.40;;
54263;SDS011;40178;53.042;6.406;2023-04-01T01:49:17;10.30;;;6.30;;
54263;SDS011;40178;53.042;6.406;2023-04-01T01:51:44;11.13;;;6.72;;
54263;SDS011;40178;53.042;6.406;2023-04-01T01:54:14;11.80;;;6.80;;
54263;SDS011;40178;53.042;6.406;2023-04-01T01:56:44;11.40;;;7.35;;
54263;SDS011;40178;53.042;6.406;2023-04-01T01:59:13;11.55;;;6.95;;
54263;SDS011;40178;53.042;6.406;2023-04-01T02:01:46;11.88;;;7.25;;
54263;SDS011;40178;53.042;6.406;2023-04-01T02:04:15;11.33;;;7.73;;
54263;SDS011;40178;53.042;6.406;2023-04-01T02:06:46;13.10;;;7.43;;
54263;SDS011;40178;53.042;6.406;2023-04-01T02:09:17;12.07;;;7.80;;
54263;SDS011;40178;53.042;6.406;2023-04-01T02:11:51;13.07;;;8.10;;
54263;SDS011;40178;53.042;6.406;2023-04-01T02:15:07;11.05;;;7.35;;
54263;SDS011;40178;53.042;6.406;2023-04-01T02:22:16;9.73;;;4.18;;
54263;SDS011;40178;53.042;6.406;2023-04-01T02:24:46;6.45;;;3.45;;
54263;SDS011;40178;53.042;6.406;2023-04-01T02:27:14;6.82;;;3.65;;
54263;SDS011;40178;53.042;6.406;2023-04-01T02:29:40;7.40;;;3.45;;
54263;SDS011;40178;53.042;6.406;2023-04-01T02:32:06;7.70;;;4.35;;
54263;SDS011;40178;53.042;6.406;2023-04-01T02:34:33;8.90;;;4.80;;
54263;SDS011;40178;53.042;6.406;2023-04-01T02:36:59;8.45;;;4.35;;
54263;SDS011;40178;53.042;6.406;2023-04-01T02:39:25;9.15;;;4.95;;
54263;SDS011;40178;53.042;6.406;2023-04-01T02:41:52;10.93;;;5.70;;
54263;SDS011;40178;53.042;6.406;2023-04-01T02:44:18;11.85;;;6.40;;
54263;SDS011;40178;53.042;6.406;2023-04-01T02:46:43;11.75;;;6.75;;
54263;SDS011;40178;53.042;6.406;2023-04-01T02:49:09;13.50;;;7.32;;
54263;SDS011;40178;53.042;6.406;2023-04-01T02:51:35;12.50;;;6.82;;
54263;SDS011;40178;53.042;6.406;2023-04-01T02:54:01;11.13;;;5.68;;
54263;SDS011;40178;53.042;6.406;2023-04-01T02:56:27;12.48;;;5.40;;
54263;SDS011;40178;53.042;6.406;2023-04-01T02:58:54;9.05;;;4.05;;
54263;SDS011;40178;53.042;6.406;2023-04-01T03:01:20;7.70;;;3.55;;
54263;SDS011;40178;53.042;6.406;2023-04-01T03:03:46;7.55;;;3.08;;
54263;SDS011;40178;53.042;6.406;2023-04-01T03:06:13;6.90;;;4.00;;
54263;SDS011;40178;53.042;6.406;2023-04-01T03:08:40;8.27;;;4.20;;
54263;SDS011;40178;53.042;6.406;2023-04-01T03:11:06;7.57;;;4.07;;
54263;SDS011;40178;53.042;6.406;2023-04-01T03:13:32;8.25;;;3.78;;
54263;SDS011;40178;53.042;6.406;2023-04-01T03:15:57;8.27;;;3.90;;
54263;SDS011;40178;53.042;6.406;2023-04-01T03:18:23;6.97;;;3.60;;
54263;SDS011;40178;53.042;6.406;2023-04-01T03:20:49;6.20;;;2.88;;
54263;SDS011;40178;53.042;6.406;2023-04-01T03:23:15;7.13;;;3.00;;
54263;SDS011;40178;53.042;6.406;2023-04-01T03:25:42;6.22;;;3.03;;
54263;SDS011;40178;53.042;6.406;2023-04-01T03:28:08;6.68;;;3.00;;
54263;SDS011;40178;53.042;6.406;2023-04-01T03:30:35;6.55;;;3.00;;
54263;SDS011;40178;53.042;6.406;2023-04-01T03:33:00;7.47;;;3.75;;
54263;SDS011;40178;53.042;6.406;2023-04-01T03:35:27;8.48;;;4.07;;
54263;SDS011;40178;53.042;6.406;2023-04-01T03:37:53;8.25;;;3.40;;
54263;SDS011;40178;53.042;6.406;2023-04-01T03:40:19;7.68;;;3.85;;
54263;SDS011;40178;53.042;6.406;2023-04-01T03:42:45;7.95;;;3.85;;
54263;SDS011;40178;53.042;6.406;2023-04-01T03:45:12;8.65;;;3.80;;
54263;SDS011;40178;53.042;6.406;2023-04-01T03:47:38;9.38;;;4.20;;
54263;SDS011;40178;53.042;6.406;2023-04-01T03:50:05;9.88;;;4.93;;
54263;SDS011;40178;53.042;6.406;2023-04-01T03:52:31;9.57;;;4.63;;
54263;SDS011;40178;53.042;6.406;2023-04-01T03:54:57;9.45;;;4.88;;
54263;SDS011;40178;53.042;6.406;2023-04-01T03:57:23;9.00;;;4.57;;
54263;SDS011;40178;53.042;6.406;2023-04-01T03:59:49;11.32;;;5.43;;
54263;SDS011;40178;53.042;6.406;2023-04-01T04:02:14;8.95;;;4.63;;
54263;SDS011;40178;53.042;6.406;2023-04-01T04:04:40;11.55;;;6.15;;
54263;SDS011;40178;53.042;6.406;2023-04-01T04:07:06;12.40;;;6.82;;
54263;SDS011;40178;53.042;6.406;2023-04-01T04:09:32;16.13;;;7.97;;
54263;SDS011;40178;53.042;6.406;2023-04-01T04:11:58;17.35;;;9.32;;
54263;SDS011;40178;53.042;6.406;2023-04-01T04:14:24;20.90;;;9.35;;
54263;SDS011;40178;53.042;6.406;2023-04-01T04:16:50;16.55;;;8.30;;
54263;SDS011;40178;53.042;6.406;2023-04-01T04:19:15;19.17;;;9.90;;
54263;SDS011;40178;53.042;6.406;2023-04-01T04:21:41;17.33;;;8.55;;
54263;SDS011;40178;53.042;6.406;2023-04-01T04:24:07;15.27;;;7.78;;
54263;SDS011;40178;53.042;6.406;2023-04-01T04:26:33;14.00;;;7.25;;
54263;SDS011;40178;53.042;6.406;2023-04-01T04:28:59;14.68;;;7.82;;
54263;SDS011;40178;53.042;6.406;2023-04-01T04:31:25;15.43;;;8.18;;
54263;SDS011;40178;53.042;6.406;2023-04-01T04:33:51;16.17;;;8.43;;
54263;SDS011;40178;53.042;6.406;2023-04-01T04:36:17;18.88;;;9.35;;
54263;SDS011;40178;53.042;6.406;2023-04-01T04:38:44;16.88;;;9.70;;
54263;SDS011;40178;53.042;6.406;2023-04-01T04:41:10;19.10;;;10.50;;
54263;SDS011;40178;53.042;6.406;2023-04-01T04:43:37;20.45;;;10.98;;
54263;SDS011;40178;53.042;6.406;2023-04-01T04:46:08;20.90;;;10.98;;
54263;SDS011;40178;53.042;6.406;2023-04-01T04:48:34;17.70;;;9.80;;
54263;SDS011;40178;53.042;6.406;2023-04-01T04:51:00;23.35;;;11.32;;
54263;SDS011;40178;53.042;6.406;2023-04-01T04:53:26;21.50;;;11.23;;
54263;SDS011;40178;53.042;6.406;2023-04-01T04:55:52;21.40;;;10.43;;
54263;SDS011;40178;53.042;6.406;2023-04-01T04:58:18;21.08;;;10.98;;
54263;SDS011;40178;53.042;6.406;2023-04-01T05:00:44;19.90;;;10.40;;
54263;SDS011;40178;53.042;6.406;2023-04-01T05:03:11;19.92;;;10.45;;
54263;SDS011;40178;53.042;6.406;2023-04-01T05:05:37;19.80;;;10.57;;
54263;SDS011;40178;53.042;6.406;2023-04-01T05:08:03;17.13;;;10.23;;
54263;SDS011;40178;53.042;6.406;2023-04-01T05:10:29;17.13;;;8.93;;
54263;SDS011;40178;53.042;6.406;2023-04-01T05:12:55;16.65;;;9.32;;
54263;SDS011;40178;53.042;6.406;2023-04-01T05:15:21;17.63;;;9.65;;
54263;SDS011;40178;53.042;6.406;2023-04-01T05:17:47;16.65;;;8.77;;
54263;SDS011;40178;53.042;6.406;2023-04-01T05:20:13;12.20;;;5.63;;
54263;SDS011;40178;53.042;6.406;2023-04-01T05:22:39;14.07;;;5.90;;
54263;SDS011;40178;53.042;6.406;2023-04-01T05:25:05;13.88;;;6.05;;
54263;SDS011;40178;53.042;6.406;2023-04-01T05:27:31;14.15;;;5.57;;
54263;SDS011;40178;53.042;6.406;2023-04-01T05:29:57;13.55;;;6.30;;
54263;SDS011;40178;53.042;6.406;2023-04-01T05:32:23;14.70;;;6.47;;
54263;SDS011;40178;53.042;6.406;2023-04-01T05:34:52;15.52;;;6.68;;
54263;SDS011;40178;53.042;6.406;2023-04-01T05:37:18;15.32;;;7.03;;
54263;SDS011;40178;53.042;6.406;2023-04-01T05:39:44;15.60;;;7.60;;
54263;SDS011;40178;53.042;6.406;2023-04-01T05:42:10;18.73;;;7.68;;
54263;SDS011;40178;53.042;6.406;2023-04-01T05:44:36;17.13;;;7.43;;
54263;SDS011;40178;53.042;6.406;2023-04-01T05:47:03;15.07;;;6.93;;
54263;SDS011;40178;53.042;6.406;2023-04-01T05:49:29;14.15;;;7.22;;
54263;SDS011;40178;53.042;6.406;2023-04-01T05:51:55;14.68;;;7.10;;
54263;SDS011;40178;53.042;6.406;2023-04-01T05:54:21;15.25;;;7.88;;
54263;SDS011;40178;53.042;6.406;2023-04-01T05:56:47;14.93;;;7.47;;
54263;SDS011;40178;53.042;6.406;2023-04-01T05:59:12;13.68;;;7.00;;
54263;SDS011;40178;53.042;6.406;2023-04-01T06:01:38;14.35;;;7.20;;
54263;SDS011;40178;53.042;6.406;2023-04-01T06:04:04;11.13;;;6.00;;
54263;SDS011;40178;53.042;6.406;2023-04-01T06:06:30;12.93;;;6.25;;
54263;SDS011;40178;53.042;6.406;2023-04-01T06:08:58;10.90;;;5.68;;
54263;SDS011;40178;53.042;6.406;2023-04-01T06:14:32;9.27;;;4.63;;
54263;SDS011;40178;53.042;6.406;2023-04-01T06:18:28;8.98;;;2.83;;
54263;SDS011;40178;53.042;6.406;2023-04-01T06:20:39;5.57;;;2.00;;
54263;SDS011;40178;53.042;6.406;2023-04-01T06:32:04;5.57;;;1.25;;
54263;SDS011;40178;53.042;6.406;2023-04-01T06:45:30;9.63;;;3.28;;
54263;SDS011;40178;53.042;6.406;2023-04-01T06:51:45;11.32;;;4.70;;
54263;SDS011;40178;53.042;6.406;2023-04-01T06:54:17;14.07;;;6.35;;
54263;SDS011;40178;53.042;6.406;2023-04-01T06:56:46;14.30;;;6.38;;
54263;SDS011;40178;53.042;6.406;2023-04-01T06:59:22;16.70;;;7.20;;
54263;SDS011;40178;53.042;6.406;2023-04-01T07:01:52;19.10;;;7.82;;
54263;SDS011;40178;53.042;6.406;2023-04-01T07:04:34;18.10;;;8.27;;
54263;SDS011;40178;53.042;6.406;2023-04-01T07:07:04;18.52;;;8.88;;
54263;SDS011;40178;53.042;6.406;2023-04-01T07:09:38;23.08;;;9.70;;
54263;SDS011;40178;53.042;6.406;2023-04-01T07:12:19;22.08;;;9.60;;
54263;SDS011;40178;53.042;6.406;2023-04-01T07:14:54;23.30;;;10.10;;
54263;SDS011;40178;53.042;6.406;2023-04-01T07:17:25;20.08;;;10.02;;
54263;SDS011;40178;53.042;6.406;2023-04-01T07:20:01;21.17;;;9.70;;
54263;SDS011;40178;53.042;6.406;2023-04-01T07:22:38;21.63;;;9.75;;
54263;SDS011;40178;53.042;6.406;2023-04-01T07:25:13;20.50;;;10.25;;
54263;SDS011;40178;53.042;6.406;2023-04-01T07:27:42;21.33;;;10.68;;
54263;SDS011;40178;53.042;6.406;2023-04-01T07:30:17;19.65;;;8.93;;
54263;SDS011;40178;53.042;6.406;2023-04-01T07:35:19;19.27;;;9.48;;
54263;SDS011;40178;53.042;6.406;2023-04-01T07:40:52;21.90;;;9.57;;
54263;SDS011;40178;53.042;6.406;2023-04-01T07:46:10;18.52;;;9.07;;
54263;SDS011;40178;53.042;6.406;2023-04-01T07:49:03;20.02;;;9.40;;
54263;SDS011;40178;53.042;6.406;2023-04-01T07:54:08;24.27;;;10.63;;
54263;SDS011;40178;53.042;6.406;2023-04-01T07:56:49;21.23;;;11.70;;
54263;SDS011;40178;53.042;6.406;2023-04-01T08:02:18;26.17;;;12.80;;
54263;SDS011;40178;53.042;6.406;2023-04-01T08:10:19;24.30;;;14.32;;
54263;SDS011;40178;53.042;6.406;2023-04-01T08:15:50;27.00;;;14.18;;
54263;SDS011;40178;53.042;6.406;2023-04-01T08:21:04;27.15;;;14.27;;
54263;SDS011;40178;53.042;6.406;2023-04-01T08:23:49;25.60;;;14.18;;
54263;SDS011;40178;53.042;6.406;2023-04-01T08:29:04;29.42;;;15.23;;
54263;SDS011;40178;53.042;6.406;2023-04-01T08:31:40;31.40;;;15.63;;
54263;SDS011;40178;53.042;6.406;2023-04-01T08:34:28;31.48;;;15.48;;
54263;SDS011;40178;53.042;6.406;2023-04-01T08:37:03;27.20;;;14.13;;
54263;SDS011;40178;53.042;6.406;2023-04-01T08:39:39;28.65;;;13.90;;
54263;SDS011;40178;53.042;6.406;2023-04-01T08:51:14;30.38;;;15.07;;
54263;SDS011;40178;53.042;6.406;2023-04-01T08:54:26;26.73;;;13.68;;
54263;SDS011;40178;53.042;6.406;2023-04-01T09:14:52;24.45;;;11.02;;
54263;SDS011;40178;53.042;6.406;2023-04-01T09:23:18;21.70;;;9.85;;
54263;SDS011;40178;53.042;6.406;2023-04-01T09:26:01;19.15;;;9.27;;
54263;SDS011;40178;53.042;6.406;2023-04-01T09:34:25;22.65;;;10.20;;
54263;SDS011;40178;53.042;6.406;2023-04-01T09:37:33;20.42;;;9.45;;
54263;SDS011;40178;53.042;6.406;2023-04-01T09:43:37;17.10;;;8.10;;
54263;SDS011;40178;53.042;6.406;2023-04-01T10:00:29;13.65;;;6.88;;
54263;SDS011;40178;53.042;6.406;2023-04-01T10:09:34;10.07;;;5.05;;
54263;SDS011;40178;53.042;6.406;2023-04-01T10:19:57;8.23;;;4.43;;
54263;SDS011;40178;53.042;6.406;2023-04-01T10:46:11;8.43;;;4.22;;
54263;SDS011;40178;53.042;6.406;2023-04-01T10:57:42;8.10;;;3.70;;
54263;SDS011;40178;53.042;6.406;2023-04-01T11:00:40;6.97;;;3.75;;
54263;SDS011;40178;53.042;6.406;2023-04-01T11:03:44;7.53;;;3.45;;
54263;SDS011;40178;53.042;6.406;2023-04-01T11:09:19;9.80;;;4.65;;
54263;SDS011;40178;53.042;6.406;2023-04-01T11:36:28;4.68;;;2.20;;
54263;SDS011;40178;53.042;6.406;2023-04-01T11:39:30;5.03;;;2.40;;
54263;SDS011;40178;53.042;6.406;2023-04-01T11:54:09;4.80;;;2.17;;
54263;SDS011;40178;53.042;6.406;2023-04-01T12:05:23;5.13;;;2.38;;
54263;SDS011;40178;53.042;6.406;2023-04-01T12:10:57;5.10;;;2.38;;
54263;SDS011;40178;53.042;6.406;2023-04-01T12:13:53;5.40;;;2.30;;
54263;SDS011;40178;53.042;6.406;2023-04-01T12:16:44;4.20;;;1.70;;
54263;SDS011;40178;53.042;6.406;2023-04-01T12:27:35;3.88;;;1.80;;
54263;SDS011;40178;53.042;6.406;2023-04-01T12:33:00;3.88;;;1.65;;
54263;SDS011;40178;53.042;6.406;2023-04-01T12:41:45;5.05;;;1.88;;
54263;SDS011;40178;53.042;6.406;2023-04-01T12:44:17;3.45;;;1.67;;
54263;SDS011;40178;53.042;6.406;2023-04-01T12:55:41;4.25;;;1.50;;
54263;SDS011;40178;53.042;6.406;2023-04-01T13:29:25;4.43;;;1.80;;
54263;SDS011;40178;53.042;6.406;2023-04-01T13:35:00;3.97;;;1.70;;
54263;SDS011;40178;53.042;6.406;2023-04-01T13:40:04;4.00;;;1.65;;
54263;SDS011;40178;53.042;6.406;2023-04-01T13:42:40;4.18;;;1.50;;
54263;SDS011;40178;53.042;6.406;2023-04-01T13:45:14;3.83;;;1.67;;
54263;SDS011;40178;53.042;6.406;2023-04-01T13:56:41;3.35;;;1.48;;
54263;SDS011;40178;53.042;6.406;2023-04-01T13:59:32;3.53;;;1.30;;
54263;SDS011;40178;53.042;6.406;2023-04-01T14:10:19;3.20;;;1.38;;
54263;SDS011;40178;53.042;6.406;2023-04-01T14:21:38;3.50;;;1.35;;
54263;SDS011;40178;53.042;6.406;2023-04-01T14:31:57;3.45;;;1.60;;
54263;SDS011;40178;53.042;6.406;2023-04-01T14:37:48;4.13;;;1.67;;
54263;SDS011;40178;53.042;6.406;2023-04-01T14:40:26;3.58;;;1.33;;
54263;SDS011;40178;53.042;6.406;2023-04-01T14:45:54;3.58;;;1.75;;
54263;SDS011;40178;53.042;6.406;2023-04-01T14:53:58;3.40;;;1.35;;
54263;SDS011;40178;53.042;6.406;2023-04-01T14:56:38;3.97;;;1.40;;
54263;SDS011;40178;53.042;6.406;2023-04-01T14:59:10;3.78;;;1.42;;
54263;SDS011;40178;53.042;6.406;2023-04-01T15:01:55;2.80;;;1.25;;
54263;SDS011;40178;53.042;6.406;2023-04-01T15:07:41;3.03;;;1.27;;
54263;SDS011;40178;53.042;6.406;2023-04-01T15:16:05;3.78;;;1.40;;
54263;SDS011;40178;53.042;6.406;2023-04-01T15:50:54;4.65;;;2.00;;
54263;SDS011;40178;53.042;6.406;2023-04-01T15:53:35;3.75;;;1.60;;
54263;SDS011;40178;53.042;6.406;2023-04-01T16:04:12;4.75;;;2.30;;
54263;SDS011;40178;53.042;6.406;2023-04-01T16:20:39;4.88;;;2.15;;
54263;SDS011;40178;53.042;6.406;2023-04-01T16:23:42;5.75;;;2.17;;
54263;SDS011;40178;53.042;6.406;2023-04-01T16:26:41;5.15;;;2.20;;
54263;SDS011;40178;53.042;6.406;2023-04-01T16:29:16;5.40;;;2.42;;
54263;SDS011;40178;53.042;6.406;2023-04-01T16:34:47;6.07;;;2.55;;
54263;SDS011;40178;53.042;6.406;2023-04-01T16:37:22;4.87;;;2.40;;
54263;SDS011;40178;53.042;6.406;2023-04-01T16:42:41;6.03;;;2.78;;
54263;SDS011;40178;53.042;6.406;2023-04-01T16:47:58;8.07;;;3.20;;
54263;SDS011;40178;53.042;6.406;2023-04-01T16:50:48;6.45;;;2.95;;
54263;SDS011;40178;53.042;6.406;2023-04-01T16:53:43;6.72;;;3.13;;
54263;SDS011;40178;53.042;6.406;2023-04-01T16:56:15;5.97;;;2.95;;
54263;SDS011;40178;53.042;6.406;2023-04-01T17:01:31;6.63;;;3.38;;
54263;SDS011;40178;53.042;6.406;2023-04-01T17:04:31;6.47;;;3.15;;
54263;SDS011;40178;53.042;6.406;2023-04-01T17:13:06;7.82;;;3.15;;
54263;SDS011;40178;53.042;6.406;2023-04-01T17:18:24;7.28;;;3.50;;
54263;SDS011;40178;53.042;6.406;2023-04-01T17:21:00;9.52;;;3.17;;
54263;SDS011;40178;53.042;6.406;2023-04-01T17:23:51;8.35;;;3.45;;
54263;SDS011;40178;53.042;6.406;2023-04-01T17:26:46;7.15;;;3.15;;
54263;SDS011;40178;53.042;6.406;2023-04-01T17:42:50;8.45;;;3.90;;
54263;SDS011;40178;53.042;6.406;2023-04-01T17:46:10;7.75;;;3.53;;
54263;SDS011;40178;53.042;6.406;2023-04-01T17:52:32;6.55;;;3.20;;
54263;SDS011;40178;53.042;6.406;2023-04-01T18:27:25;8.57;;;4.60;;
54263;SDS011;40178;53.042;6.406;2023-04-01T18:31:11;9.75;;;4.13;;
54263;SDS011;40178;53.042;6.406;2023-04-01T18:41:53;9.88;;;4.78;;
54263;SDS011;40178;53.042;6.406;2023-04-01T18:44:45;8.98;;;4.95;;
54263;SDS011;40178;53.042;6.406;2023-04-01T18:47:17;11.82;;;5.68;;
54263;SDS011;40178;53.042;6.406;2023-04-01T18:50:27;10.02;;;6.00;;
54263;SDS011;40178;53.042;6.406;2023-04-01T18:53:13;8.80;;;4.60;;
54263;SDS011;40178;53.042;6.406;2023-04-01T18:55:54;9.90;;;5.13;;
54263;SDS011;40178;53.042;6.406;2023-04-01T18:58:35;11.25;;;5.43;;
54263;SDS011;40178;53.042;6.406;2023-04-01T19:01:38;10.32;;;5.10;;
54263;SDS011;40178;53.042;6.406;2023-04-01T19:09:54;11.00;;;5.57;;
54263;SDS011;40178;53.042;6.406;2023-04-01T19:12:32;12.52;;;5.20;;
54263;SDS011;40178;53.042;6.406;2023-04-01T19:23:13;11.63;;;6.35;;
54263;SDS011;40178;53.042;6.406;2023-04-01T19:26:11;10.20;;;5.68;;
54263;SDS011;40178;53.042;6.406;2023-04-01T19:33:48;13.68;;;5.95;;
54263;SDS011;40178;53.042;6.406;2023-04-01T19:36:49;10.68;;;4.88;;
54263;SDS011;40178;53.042;6.406;2023-04-01T19:44:35;10.82;;;5.85;;
54263;SDS011;40178;53.042;6.406;2023-04-01T19:58:03;13.30;;;6.65;;
54263;SDS011;40178;53.042;6.406;2023-04-01T20:00:36;12.02;;;6.28;;
54263;SDS011;40178;53.042;6.406;2023-04-01T20:13:46;13.45;;;5.93;;
54263;SDS011;40178;53.042;6.406;2023-04-01T20:19:21;12.88;;;5.97;;
54263;SDS011;40178;53.042;6.406;2023-04-01T20:22:10;10.32;;;5.72;;
54263;SDS011;40178;53.042;6.406;2023-04-01T20:24:41;11.57;;;5.78;;
54263;SDS011;40178;53.042;6.406;2023-04-01T20:32:45;10.63;;;4.85;;
54263;SDS011;40178;53.042;6.406;2023-04-01T20:44:09;8.55;;;4.65;;
54263;SDS011;40178;53.042;6.406;2023-04-01T20:46:56;10.90;;;4.90;;
54263;SDS011;40178;53.042;6.406;2023-04-01T20:49:47;10.00;;;4.60;;
54263;SDS011;40178;53.042;6.406;2023-04-01T20:52:22;9.70;;;4.63;;
54263;SDS011;40178;53.042;6.406;2023-04-01T20:57:44;11.75;;;5.07;;
54263;SDS011;40178;53.042;6.406;2023-04-01T21:11:28;9.65;;;4.38;;
54263;SDS011;40178;53.042;6.406;2023-04-01T21:25:26;9.68;;;4.10;;
54263;SDS011;40178;53.042;6.406;2023-04-01T21:28:04;9.57;;;4.18;;
54263;SDS011;40178;53.042;6.406;2023-04-01T21:30:49;10.32;;;4.57;;
54263;SDS011;40178;53.042;6.406;2023-04-01T21:33:32;9.18;;;4.18;;
54263;SDS011;40178;53.042;6.406;2023-04-01T21:39:05;9.80;;;4.35;;
54263;SDS011;40178;53.042;6.406;2023-04-01T21:42:28;11.13;;;3.92;;
54263;SDS011;40178;53.042;6.406;2023-04-01T22:07:52;9.75;;;4.20;;
54263;SDS011;40178;53.042;6.406;2023-04-01T22:18:52;11.43;;;4.07;;
54263;SDS011;40178;53.042;6.406;2023-04-01T22:24:32;11.00;;;4.78;;
54263;SDS011;40178;53.042;6.406;2023-04-01T22:27:11;9.13;;;3.90;;
54263;SDS011;40178;53.042;6.406;2023-04-01T22:32:44;11.70;;;4.05;;
54263;SDS011;40178;53.042;6.406;2023-04-01T22:43:44;9.02;;;3.42;;
54263;SDS011;40178;53.042;6.406;2023-04-01T22:49:15;11.90;;;3.88;;
54263;SDS011;40178;53.042;6.406;2023-04-01T22:51:49;7.88;;;3.33;;
54263;SDS011;40178;53.042;6.406;2023-04-01T22:54:36;7.28;;;2.92;;
54263;SDS011;40178;53.042;6.406;2023-04-01T22:57:10;8.43;;;3.30;;
54263;SDS011;40178;53.042;6.406;2023-04-01T22:59:58;8.27;;;3.22;;
54263;SDS011;40178;53.042;6.406;2023-04-01T23:03:04;6.85;;;3.15;;
54263;SDS011;40178;53.042;6.406;2023-04-01T23:05:29;9.10;;;3.20;;
54263;SDS011;40178;53.042;6.406;2023-04-01T23:08:22;8.88;;;3.53;;
54263;SDS011;40178;53.042;6.406;2023-04-01T23:10:52;7.63;;;2.78;;
54263;SDS011;40178;53.042;6.406;2023-04-01T23:13:53;7.43;;;3.15;;
54263;SDS011;40178;53.042;6.406;2023-04-01T23:16:40;10.02;;;3.88;;
54263;SDS011;40178;53.042;6.406;2023-04-01T23:19:13;7.00;;;3.13;;
54263;SDS011;40178;53.042;6.406;2023-04-01T23:27:37;8.43;;;2.90;;
54263;SDS011;40178;53.042;6.406;2023-04-01T23:33:13;7.18;;;3.75;;
54263;SDS011;40178;53.042;6.406;2023-04-01T23:35:48;6.53;;;2.85;;
54263;SDS011;40178;53.042;6.406;2023-04-01T23:38:21;8.13;;;3.13;;
54263;SDS011;40178;53.042;6.406;2023-04-01T23:40:50;6.63;;;2.92;;
54263;SDS011;40178;53.042;6.406;2023-04-01T23:43:25;10.60;;;3.35;;
54263;SDS011;40178;53.042;6.406;2023-04-01T23:45:56;8.93;;;3.38;;
54263;SDS011;40178;53.042;6.406;2023-04-01T23:48:26;10.43;;;3.55;;
54263;SDS011;40178;53.042;6.406;2023-04-01T23:50:55;10.88;;;3.72;;
54263;SDS011;40178;53.042;6.406;2023-04-01T23:53:26;10.02;;;3.10;;
54263;SDS011;40178;53.042;6.406;2023-04-01T23:55:58;6.22;;;2.90;;
